Terminal Aerodrome Forecast
Issued by NWS Midland/Odessa, TX

Home | Current Version | Previous Version | Text Only | Print | Product List | Glossary On
Versions: 1 2 3 4 5 6 7 8 9 10 11 12 13 14 15
596
FTUS44 KMAF 031937 AAA
TAFMAF
TAF AMD
KMAF 031937Z 0320/0418 15006KT P6SM FEW090
     FM040100 34010KT P6SM FEW200
     FM040600 07008KT P6SM SKC=

USA.gov is the U.S. government's official web portal to all federal, state and local government web resources and services.